sensor_id;sensor_type;location;lat;lon;timestamp;P1;durP1;ratioP1;P2;durP2;ratioP2
335;SDS011;156;48.738;9.228;2023-12-22T00:01:29;7.93;;;3.72;;
335;SDS011;156;48.738;9.228;2023-12-22T00:03:56;4.07;;;3.88;;
335;SDS011;156;48.738;9.228;2023-12-22T00:06:23;4.13;;;3.92;;
335;SDS011;156;48.738;9.228;2023-12-22T00:08:51;5.30;;;3.38;;
335;SDS011;156;48.738;9.228;2023-12-22T00:11:18;2.90;;;2.70;;
335;SDS011;156;48.738;9.228;2023-12-22T00:13:45;2.40;;;2.20;;
335;SDS011;156;48.738;9.228;2023-12-22T00:16:12;4.53;;;2.58;;
335;SDS011;156;48.738;9.228;2023-12-22T00:18:39;1.98;;;1.88;;
335;SDS011;156;48.738;9.228;2023-12-22T00:21:09;2.88;;;1.90;;
335;SDS011;156;48.738;9.228;2023-12-22T00:23:36;3.15;;;1.85;;
335;SDS011;156;48.738;9.228;2023-12-22T00:26:04;4.22;;;3.97;;
335;SDS011;156;48.738;9.228;2023-12-22T00:28:31;1.65;;;1.55;;
335;SDS011;156;48.738;9.228;2023-12-22T00:30:58;3.65;;;1.92;;
335;SDS011;156;48.738;9.228;2023-12-22T00:33:25;2.80;;;2.30;;
335;SDS011;156;48.738;9.228;2023-12-22T00:35:52;6.47;;;1.70;;
335;SDS011;156;48.738;9.228;2023-12-22T00:38:19;1.92;;;1.83;;
335;SDS011;156;48.738;9.228;2023-12-22T00:40:46;5.00;;;1.70;;
335;SDS011;156;48.738;9.228;2023-12-22T00:43:14;2.47;;;2.28;;
335;SDS011;156;48.738;9.228;2023-12-22T00:45:41;2.97;;;2.80;;
335;SDS011;156;48.738;9.228;2023-12-22T00:48:08;7.15;;;6.75;;
335;SDS011;156;48.738;9.228;2023-12-22T00:50:35;7.68;;;7.28;;
335;SDS011;156;48.738;9.228;2023-12-22T00:53:02;5.40;;;5.10;;
335;SDS011;156;48.738;9.228;2023-12-22T00:55:29;6.03;;;5.72;;
335;SDS011;156;48.738;9.228;2023-12-22T00:57:56;4.00;;;3.45;;
335;SDS011;156;48.738;9.228;2023-12-22T01:00:24;2.53;;;2.33;;
335;SDS011;156;48.738;9.228;2023-12-22T01:02:51;3.53;;;3.00;;
335;SDS011;156;48.738;9.228;2023-12-22T01:05:18;6.80;;;4.00;;
335;SDS011;156;48.738;9.228;2023-12-22T01:07:45;5.60;;;2.83;;
335;SDS011;156;48.738;9.228;2023-12-22T01:10:11;2.10;;;1.95;;
335;SDS011;156;48.738;9.228;2023-12-22T01:12:38;1.88;;;1.77;;
335;SDS011;156;48.738;9.228;2023-12-22T01:15:06;9.10;;;3.10;;
335;SDS011;156;48.738;9.228;2023-12-22T01:17:34;3.53;;;2.55;;
335;SDS011;156;48.738;9.228;2023-12-22T01:20:01;3.47;;;2.65;;
335;SDS011;156;48.738;9.228;2023-12-22T01:22:28;2.20;;;2.00;;
335;SDS011;156;48.738;9.228;2023-12-22T01:24:57;1.40;;;1.30;;
335;SDS011;156;48.738;9.228;2023-12-22T01:27:24;5.00;;;2.78;;
335;SDS011;156;48.738;9.228;2023-12-22T01:29:50;2.72;;;2.53;;
335;SDS011;156;48.738;9.228;2023-12-22T01:32:17;4.95;;;2.28;;
335;SDS011;156;48.738;9.228;2023-12-22T01:34:46;3.40;;;2.08;;
335;SDS011;156;48.738;9.228;2023-12-22T01:37:12;2.67;;;2.33;;
335;SDS011;156;48.738;9.228;2023-12-22T01:39:39;3.42;;;2.15;;
335;SDS011;156;48.738;9.228;2023-12-22T01:42:06;1.98;;;1.85;;
335;SDS011;156;48.738;9.228;2023-12-22T01:44:33;2.38;;;1.80;;
335;SDS011;156;48.738;9.228;2023-12-22T01:47:00;2.70;;;2.40;;
335;SDS011;156;48.738;9.228;2023-12-22T01:49:27;4.88;;;2.30;;
335;SDS011;156;48.738;9.228;2023-12-22T01:51:56;4.40;;;1.70;;
335;SDS011;156;48.738;9.228;2023-12-22T01:54:23;2.40;;;2.10;;
335;SDS011;156;48.738;9.228;2023-12-22T01:56:51;2.17;;;1.45;;
335;SDS011;156;48.738;9.228;2023-12-22T01:59:17;3.00;;;1.52;;
335;SDS011;156;48.738;9.228;2023-12-22T02:01:44;2.00;;;1.30;;
335;SDS011;156;48.738;9.228;2023-12-22T02:04:11;2.15;;;1.00;;
335;SDS011;156;48.738;9.228;2023-12-22T02:06:40;1.58;;;1.48;;
335;SDS011;156;48.738;9.228;2023-12-22T02:09:09;2.03;;;1.58;;
335;SDS011;156;48.738;9.228;2023-12-22T02:11:37;1.58;;;1.50;;
335;SDS011;156;48.738;9.228;2023-12-22T02:14:03;1.85;;;1.00;;
335;SDS011;156;48.738;9.228;2023-12-22T02:16:32;1.40;;;1.30;;
335;SDS011;156;48.738;9.228;2023-12-22T02:19:09;2.35;;;1.00;;
335;SDS011;156;48.738;9.228;2023-12-22T02:21:59;5.13;;;1.60;;
335;SDS011;156;48.738;9.228;2023-12-22T02:24:28;1.77;;;1.45;;
335;SDS011;156;48.738;9.228;2023-12-22T02:26:56;1.60;;;1.13;;
335;SDS011;156;48.738;9.228;2023-12-22T02:29:30;4.80;;;1.20;;
335;SDS011;156;48.738;9.228;2023-12-22T02:32:02;1.25;;;1.00;;
335;SDS011;156;48.738;9.228;2023-12-22T02:34:35;0.75;;;0.73;;
335;SDS011;156;48.738;9.228;2023-12-22T02:37:04;1.95;;;1.08;;
335;SDS011;156;48.738;9.228;2023-12-22T02:39:35;1.83;;;1.60;;
335;SDS011;156;48.738;9.228;2023-12-22T02:42:02;1.33;;;1.30;;
335;SDS011;156;48.738;9.228;2023-12-22T02:44:30;2.65;;;1.08;;
335;SDS011;156;48.738;9.228;2023-12-22T02:46:58;1.85;;;1.17;;
335;SDS011;156;48.738;9.228;2023-12-22T02:49:24;4.32;;;1.42;;
335;SDS011;156;48.738;9.228;2023-12-22T02:51:51;0.70;;;0.60;;
335;SDS011;156;48.738;9.228;2023-12-22T02:54:21;3.13;;;1.27;;
335;SDS011;156;48.738;9.228;2023-12-22T02:56:49;1.73;;;1.17;;
335;SDS011;156;48.738;9.228;2023-12-22T02:59:16;3.72;;;1.15;;
335;SDS011;156;48.738;9.228;2023-12-22T03:01:43;0.90;;;0.80;;
335;SDS011;156;48.738;9.228;2023-12-22T03:04:10;2.03;;;1.10;;
335;SDS011;156;48.738;9.228;2023-12-22T03:06:37;2.33;;;1.50;;
335;SDS011;156;48.738;9.228;2023-12-22T03:09:03;2.92;;;0.80;;
335;SDS011;156;48.738;9.228;2023-12-22T03:11:31;1.30;;;1.20;;
335;SDS011;156;48.738;9.228;2023-12-22T03:13:59;3.88;;;1.48;;
335;SDS011;156;48.738;9.228;2023-12-22T03:16:26;2.55;;;1.15;;
335;SDS011;156;48.738;9.228;2023-12-22T03:18:52;2.77;;;1.17;;
335;SDS011;156;48.738;9.228;2023-12-22T03:21:19;0.80;;;0.60;;
335;SDS011;156;48.738;9.228;2023-12-22T03:23:46;1.60;;;1.30;;
335;SDS011;156;48.738;9.228;2023-12-22T03:26:13;3.80;;;0.90;;
335;SDS011;156;48.738;9.228;2023-12-22T03:28:39;3.42;;;0.73;;
335;SDS011;156;48.738;9.228;2023-12-22T03:31:08;1.25;;;0.63;;
335;SDS011;156;48.738;9.228;2023-12-22T03:33:35;0.50;;;0.40;;
335;SDS011;156;48.738;9.228;2023-12-22T03:36:01;3.40;;;1.05;;
335;SDS011;156;48.738;9.228;2023-12-22T03:38:29;2.47;;;0.95;;
335;SDS011;156;48.738;9.228;2023-12-22T03:40:56;2.47;;;0.70;;
335;SDS011;156;48.738;9.228;2023-12-22T03:43:22;0.90;;;0.52;;
335;SDS011;156;48.738;9.228;2023-12-22T03:45:49;2.55;;;0.70;;
335;SDS011;156;48.738;9.228;2023-12-22T03:48:18;1.33;;;0.90;;
335;SDS011;156;48.738;9.228;2023-12-22T03:50:44;3.58;;;0.65;;
335;SDS011;156;48.738;9.228;2023-12-22T03:53:11;1.30;;;0.40;;
335;SDS011;156;48.738;9.228;2023-12-22T03:55:38;0.65;;;0.40;;
335;SDS011;156;48.738;9.228;2023-12-22T03:58:05;1.63;;;0.93;;
335;SDS011;156;48.738;9.228;2023-12-22T04:00:33;1.65;;;1.13;;
335;SDS011;156;48.738;9.228;2023-12-22T04:03:00;5.70;;;1.38;;
335;SDS011;156;48.738;9.228;2023-12-22T04:05:29;2.42;;;1.85;;
335;SDS011;156;48.738;9.228;2023-12-22T04:07:56;2.00;;;1.02;;
335;SDS011;156;48.738;9.228;2023-12-22T04:10:22;2.67;;;1.58;;
335;SDS011;156;48.738;9.228;2023-12-22T04:12:49;2.58;;;1.70;;
335;SDS011;156;48.738;9.228;2023-12-22T04:15:16;5.70;;;2.33;;
335;SDS011;156;48.738;9.228;2023-12-22T04:17:43;3.92;;;1.60;;
335;SDS011;156;48.738;9.228;2023-12-22T04:20:10;4.40;;;3.08;;
335;SDS011;156;48.738;9.228;2023-12-22T04:22:39;3.25;;;2.78;;
335;SDS011;156;48.738;9.228;2023-12-22T04:25:06;3.40;;;3.20;;
335;SDS011;156;48.738;9.228;2023-12-22T04:27:33;3.15;;;2.95;;
335;SDS011;156;48.738;9.228;2023-12-22T04:30:00;6.30;;;3.60;;
335;SDS011;156;48.738;9.228;2023-12-22T04:32:27;3.53;;;3.30;;
335;SDS011;156;48.738;9.228;2023-12-22T04:34:54;2.58;;;2.33;;
335;SDS011;156;48.738;9.228;2023-12-22T04:37:21;5.85;;;2.45;;
335;SDS011;156;48.738;9.228;2023-12-22T04:39:50;1.80;;;1.70;;
335;SDS011;156;48.738;9.228;2023-12-22T04:42:17;4.55;;;2.00;;
335;SDS011;156;48.738;9.228;2023-12-22T04:44:44;2.75;;;1.73;;
335;SDS011;156;48.738;9.228;2023-12-22T04:47:11;2.28;;;1.92;;
335;SDS011;156;48.738;9.228;2023-12-22T04:49:39;3.45;;;1.88;;
335;SDS011;156;48.738;9.228;2023-12-22T04:52:06;2.78;;;1.63;;
335;SDS011;156;48.738;9.228;2023-12-22T04:54:32;1.35;;;1.13;;
335;SDS011;156;48.738;9.228;2023-12-22T04:57:01;2.45;;;1.85;;
335;SDS011;156;48.738;9.228;2023-12-22T04:59:28;1.52;;;1.42;;
335;SDS011;156;48.738;9.228;2023-12-22T05:01:55;2.92;;;1.70;;
335;SDS011;156;48.738;9.228;2023-12-22T05:04:22;1.27;;;1.17;;
335;SDS011;156;48.738;9.228;2023-12-22T05:06:48;1.95;;;1.55;;
335;SDS011;156;48.738;9.228;2023-12-22T05:09:15;1.27;;;1.20;;
335;SDS011;156;48.738;9.228;2023-12-22T05:11:45;1.63;;;1.27;;
335;SDS011;156;48.738;9.228;2023-12-22T05:14:13;1.50;;;1.42;;
335;SDS011;156;48.738;9.228;2023-12-22T05:16:40;2.78;;;1.65;;
335;SDS011;156;48.738;9.228;2023-12-22T05:19:07;4.43;;;1.40;;
335;SDS011;156;48.738;9.228;2023-12-22T05:21:34;1.90;;;1.80;;
335;SDS011;156;48.738;9.228;2023-12-22T05:24:01;4.45;;;2.13;;
335;SDS011;156;48.738;9.228;2023-12-22T05:26:28;1.58;;;0.98;;
335;SDS011;156;48.738;9.228;2023-12-22T05:28:56;5.00;;;1.95;;
335;SDS011;156;48.738;9.228;2023-12-22T05:31:24;3.42;;;1.63;;
335;SDS011;156;48.738;9.228;2023-12-22T05:33:52;6.10;;;1.42;;
335;SDS011;156;48.738;9.228;2023-12-22T05:36:20;13.07;;;3.00;;
335;SDS011;156;48.738;9.228;2023-12-22T05:38:47;1.45;;;1.35;;
335;SDS011;156;48.738;9.228;2023-12-22T05:41:14;9.68;;;4.90;;
335;SDS011;156;48.738;9.228;2023-12-22T05:43:41;2.53;;;1.70;;
335;SDS011;156;48.738;9.228;2023-12-22T05:46:08;2.90;;;2.10;;
335;SDS011;156;48.738;9.228;2023-12-22T05:48:37;3.45;;;2.08;;
335;SDS011;156;48.738;9.228;2023-12-22T05:51:04;2.95;;;1.98;;
335;SDS011;156;48.738;9.228;2023-12-22T05:53:32;3.00;;;1.25;;
335;SDS011;156;48.738;9.228;2023-12-22T05:55:59;4.28;;;1.60;;
335;SDS011;156;48.738;9.228;2023-12-22T05:58:26;7.03;;;2.00;;
335;SDS011;156;48.738;9.228;2023-12-22T06:00:53;6.68;;;1.60;;
335;SDS011;156;48.738;9.228;2023-12-22T06:03:20;6.28;;;0.77;;
335;SDS011;156;48.738;9.228;2023-12-22T06:05:48;3.67;;;1.30;;
335;SDS011;156;48.738;9.228;2023-12-22T06:08:15;8.45;;;2.67;;
335;SDS011;156;48.738;9.228;2023-12-22T06:10:42;5.43;;;1.17;;
335;SDS011;156;48.738;9.228;2023-12-22T06:13:09;1.85;;;1.17;;
335;SDS011;156;48.738;9.228;2023-12-22T06:15:39;3.58;;;1.30;;
335;SDS011;156;48.738;9.228;2023-12-22T06:18:06;3.65;;;1.73;;
335;SDS011;156;48.738;9.228;2023-12-22T06:20:33;3.53;;;1.60;;
335;SDS011;156;48.738;9.228;2023-12-22T06:23:01;1.50;;;0.65;;
335;SDS011;156;48.738;9.228;2023-12-22T06:25:29;2.67;;;1.40;;
335;SDS011;156;48.738;9.228;2023-12-22T06:27:56;1.30;;;1.02;;
335;SDS011;156;48.738;9.228;2023-12-22T06:30:23;1.20;;;0.63;;
335;SDS011;156;48.738;9.228;2023-12-22T06:32:50;5.55;;;2.25;;
335;SDS011;156;48.738;9.228;2023-12-22T06:35:17;12.18;;;1.95;;
335;SDS011;156;48.738;9.228;2023-12-22T06:37:48;6.80;;;1.70;;
335;SDS011;156;48.738;9.228;2023-12-22T06:40:18;2.95;;;1.17;;
335;SDS011;156;48.738;9.228;2023-12-22T06:42:45;4.28;;;1.65;;
335;SDS011;156;48.738;9.228;2023-12-22T06:45:12;4.95;;;2.00;;
335;SDS011;156;48.738;9.228;2023-12-22T06:47:39;2.55;;;0.75;;
335;SDS011;156;48.738;9.228;2023-12-22T06:50:06;9.07;;;2.15;;
335;SDS011;156;48.738;9.228;2023-12-22T06:52:33;0.50;;;0.50;;
335;SDS011;156;48.738;9.228;2023-12-22T06:55:00;2.30;;;1.23;;
335;SDS011;156;48.738;9.228;2023-12-22T06:57:29;2.90;;;1.25;;
335;SDS011;156;48.738;9.228;2023-12-22T06:59:56;5.65;;;1.48;;
335;SDS011;156;48.738;9.228;2023-12-22T07:02:22;1.63;;;1.13;;
335;SDS011;156;48.738;9.228;2023-12-22T07:07:50;5.18;;;1.23;;
335;SDS011;156;48.738;9.228;2023-12-22T07:10:17;3.38;;;2.90;;
335;SDS011;156;48.738;9.228;2023-12-22T07:12:45;1.27;;;0.68;;
335;SDS011;156;48.738;9.228;2023-12-22T07:15:12;3.00;;;1.30;;
335;SDS011;156;48.738;9.228;2023-12-22T07:17:39;1.52;;;0.98;;
335;SDS011;156;48.738;9.228;2023-12-22T07:20:06;1.17;;;1.08;;
335;SDS011;156;48.738;9.228;2023-12-22T07:22:34;4.18;;;3.25;;
335;SDS011;156;48.738;9.228;2023-12-22T07:25:01;5.97;;;1.65;;
335;SDS011;156;48.738;9.228;2023-12-22T07:27:28;3.00;;;1.35;;
335;SDS011;156;48.738;9.228;2023-12-22T07:29:56;0.60;;;0.50;;
335;SDS011;156;48.738;9.228;2023-12-22T07:32:23;1.35;;;0.93;;
335;SDS011;156;48.738;9.228;2023-12-22T07:34:50;2.50;;;1.65;;
335;SDS011;156;48.738;9.228;2023-12-22T07:37:17;3.20;;;1.67;;
335;SDS011;156;48.738;9.228;2023-12-22T07:39:44;6.75;;;2.28;;
335;SDS011;156;48.738;9.228;2023-12-22T07:42:11;12.00;;;1.75;;
335;SDS011;156;48.738;9.228;2023-12-22T07:44:38;2.10;;;1.35;;
335;SDS011;156;48.738;9.228;2023-12-22T07:47:07;5.60;;;1.50;;
335;SDS011;156;48.738;9.228;2023-12-22T07:49:35;12.60;;;1.77;;
335;SDS011;156;48.738;9.228;2023-12-22T07:52:02;2.22;;;1.95;;
335;SDS011;156;48.738;9.228;2023-12-22T07:54:29;2.08;;;1.05;;
335;SDS011;156;48.738;9.228;2023-12-22T07:56:56;2.38;;;0.73;;
335;SDS011;156;48.738;9.228;2023-12-22T07:59:23;3.22;;;2.28;;
335;SDS011;156;48.738;9.228;2023-12-22T08:01:50;3.55;;;1.45;;
335;SDS011;156;48.738;9.228;2023-12-22T08:04:19;1.00;;;0.90;;
335;SDS011;156;48.738;9.228;2023-12-22T08:06:45;2.78;;;1.23;;
335;SDS011;156;48.738;9.228;2023-12-22T08:09:12;8.32;;;2.17;;
335;SDS011;156;48.738;9.228;2023-12-22T08:11:39;3.40;;;1.95;;
335;SDS011;156;48.738;9.228;2023-12-22T08:14:06;3.67;;;1.70;;
335;SDS011;156;48.738;9.228;2023-12-22T08:16:33;3.28;;;2.33;;
335;SDS011;156;48.738;9.228;2023-12-22T08:19:00;10.20;;;3.15;;
335;SDS011;156;48.738;9.228;2023-12-22T08:21:28;6.68;;;4.00;;
335;SDS011;156;48.738;9.228;2023-12-22T08:23:55;3.53;;;3.33;;
335;SDS011;156;48.738;9.228;2023-12-22T08:26:22;3.97;;;3.78;;
335;SDS011;156;48.738;9.228;2023-12-22T08:28:49;4.32;;;3.35;;
335;SDS011;156;48.738;9.228;2023-12-22T08:31:16;4.60;;;4.30;;
335;SDS011;156;48.738;9.228;2023-12-22T08:33:43;3.15;;;2.95;;
335;SDS011;156;48.738;9.228;2023-12-22T08:36:10;4.32;;;2.55;;
335;SDS011;156;48.738;9.228;2023-12-22T08:38:38;4.18;;;3.75;;
335;SDS011;156;48.738;9.228;2023-12-22T08:41:06;6.65;;;3.92;;
335;SDS011;156;48.738;9.228;2023-12-22T08:43:33;7.88;;;3.80;;
335;SDS011;156;48.738;9.228;2023-12-22T08:46:00;11.77;;;3.45;;
335;SDS011;156;48.738;9.228;2023-12-22T08:48:27;6.20;;;3.50;;
335;SDS011;156;48.738;9.228;2023-12-22T08:50:54;5.53;;;3.47;;
335;SDS011;156;48.738;9.228;2023-12-22T08:53:21;3.95;;;3.75;;
335;SDS011;156;48.738;9.228;2023-12-22T08:55:49;3.15;;;2.95;;
335;SDS011;156;48.738;9.228;2023-12-22T08:58:17;4.90;;;3.53;;
335;SDS011;156;48.738;9.228;2023-12-22T09:00:44;5.10;;;3.38;;
335;SDS011;156;48.738;9.228;2023-12-22T09:03:11;6.82;;;2.78;;
335;SDS011;156;48.738;9.228;2023-12-22T09:05:37;3.13;;;2.72;;
335;SDS011;156;48.738;9.228;2023-12-22T09:08:05;4.32;;;2.15;;
335;SDS011;156;48.738;9.228;2023-12-22T09:10:32;8.50;;;3.30;;
335;SDS011;156;48.738;9.228;2023-12-22T09:13:00;5.38;;;3.25;;
335;SDS011;156;48.738;9.228;2023-12-22T09:15:27;5.60;;;1.95;;
335;SDS011;156;48.738;9.228;2023-12-22T09:17:54;7.13;;;3.10;;
335;SDS011;156;48.738;9.228;2023-12-22T09:20:21;4.72;;;2.10;;
335;SDS011;156;48.738;9.228;2023-12-22T09:22:48;5.20;;;2.97;;
335;SDS011;156;48.738;9.228;2023-12-22T09:25:15;13.02;;;3.35;;
335;SDS011;156;48.738;9.228;2023-12-22T09:27:42;5.28;;;1.98;;
335;SDS011;156;48.738;9.228;2023-12-22T09:30:10;2.00;;;1.88;;
335;SDS011;156;48.738;9.228;2023-12-22T09:32:37;4.07;;;2.30;;
335;SDS011;156;48.738;9.228;2023-12-22T09:35:04;3.00;;;1.40;;
335;SDS011;156;48.738;9.228;2023-12-22T09:37:33;5.20;;;2.42;;
335;SDS011;156;48.738;9.228;2023-12-22T09:39:58;6.10;;;1.10;;
335;SDS011;156;48.738;9.228;2023-12-22T09:42:26;8.57;;;2.97;;
335;SDS011;156;48.738;9.228;2023-12-22T09:44:54;3.00;;;1.67;;
335;SDS011;156;48.738;9.228;2023-12-22T09:47:26;2.35;;;1.38;;
335;SDS011;156;48.738;9.228;2023-12-22T09:49:55;5.72;;;2.35;;
335;SDS011;156;48.738;9.228;2023-12-22T09:52:23;6.70;;;2.35;;
335;SDS011;156;48.738;9.228;2023-12-22T09:54:51;14.85;;;3.42;;
335;SDS011;156;48.738;9.228;2023-12-22T09:57:20;5.47;;;2.22;;
335;SDS011;156;48.738;9.228;2023-12-22T09:59:50;5.18;;;2.78;;
335;SDS011;156;48.738;9.228;2023-12-22T10:02:18;2.22;;;1.42;;
335;SDS011;156;48.738;9.228;2023-12-22T10:04:46;2.35;;;1.77;;
335;SDS011;156;48.738;9.228;2023-12-22T10:07:13;3.75;;;1.80;;
335;SDS011;156;48.738;9.228;2023-12-22T10:09:43;3.88;;;1.50;;
335;SDS011;156;48.738;9.228;2023-12-22T10:12:13;6.75;;;2.97;;
335;SDS011;156;48.738;9.228;2023-12-22T10:14:41;12.60;;;4.45;;
335;SDS011;156;48.738;9.228;2023-12-22T10:17:09;9.57;;;2.47;;
335;SDS011;156;48.738;9.228;2023-12-22T10:19:36;5.43;;;1.80;;
335;SDS011;156;48.738;9.228;2023-12-22T10:22:05;3.88;;;1.80;;
335;SDS011;156;48.738;9.228;2023-12-22T10:24:38;6.85;;;2.38;;
335;SDS011;156;48.738;9.228;2023-12-22T10:27:07;2.53;;;1.98;;
335;SDS011;156;48.738;9.228;2023-12-22T10:29:35;1.52;;;1.48;;
335;SDS011;156;48.738;9.228;2023-12-22T10:32:02;2.88;;;1.30;;
335;SDS011;156;48.738;9.228;2023-12-22T10:34:30;5.53;;;2.13;;
335;SDS011;156;48.738;9.228;2023-12-22T10:36:58;13.05;;;2.25;;
335;SDS011;156;48.738;9.228;2023-12-22T10:39:28;6.25;;;2.55;;
335;SDS011;156;48.738;9.228;2023-12-22T10:41:55;2.80;;;1.70;;
335;SDS011;156;48.738;9.228;2023-12-22T10:44:23;8.93;;;2.83;;
335;SDS011;156;48.738;9.228;2023-12-22T10:46:51;4.63;;;3.05;;
335;SDS011;156;48.738;9.228;2023-12-22T10:49:18;9.88;;;2.63;;
335;SDS011;156;48.738;9.228;2023-12-22T10:51:45;4.05;;;3.42;;
335;SDS011;156;48.738;9.228;2023-12-22T10:54:12;7.13;;;2.70;;
335;SDS011;156;48.738;9.228;2023-12-22T10:56:41;5.95;;;2.05;;
335;SDS011;156;48.738;9.228;2023-12-22T10:59:08;5.65;;;3.00;;
335;SDS011;156;48.738;9.228;2023-12-22T11:01:36;2.45;;;1.02;;
335;SDS011;156;48.738;9.228;2023-12-22T11:04:05;2.35;;;1.98;;
335;SDS011;156;48.738;9.228;2023-12-22T11:06:33;1.80;;;1.17;;
335;SDS011;156;48.738;9.228;2023-12-22T11:09:01;5.80;;;1.23;;
335;SDS011;156;48.738;9.228;2023-12-22T11:11:33;6.05;;;1.90;;
335;SDS011;156;48.738;9.228;2023-12-22T11:14:02;3.15;;;0.85;;
335;SDS011;156;48.738;9.228;2023-12-22T11:16:29;4.53;;;1.90;;
335;SDS011;156;48.738;9.228;2023-12-22T11:18:58;1.25;;;0.98;;
335;SDS011;156;48.738;9.228;2023-12-22T11:21:26;2.70;;;1.27;;
335;SDS011;156;48.738;9.228;2023-12-22T11:23:55;5.72;;;2.25;;
335;SDS011;156;48.738;9.228;2023-12-22T11:26:23;2.53;;;2.10;;
335;SDS011;156;48.738;9.228;2023-12-22T11:28:51;6.35;;;2.42;;
335;SDS011;156;48.738;9.228;2023-12-22T11:31:20;2.50;;;2.30;;
335;SDS011;156;48.738;9.228;2023-12-22T11:33:50;2.72;;;2.53;;
335;SDS011;156;48.738;9.228;2023-12-22T11:36:17;3.38;;;3.17;;
335;SDS011;156;48.738;9.228;2023-12-22T11:38:45;2.90;;;2.70;;
335;SDS011;156;48.738;9.228;2023-12-22T11:41:14;2.75;;;2.55;;
335;SDS011;156;48.738;9.228;2023-12-22T11:43:44;3.00;;;2.80;;
335;SDS011;156;48.738;9.228;2023-12-22T11:46:11;3.17;;;2.97;;
335;SDS011;156;48.738;9.228;2023-12-22T11:48:47;2.83;;;2.65;;
335;SDS011;156;48.738;9.228;2023-12-22T11:51:14;4.45;;;3.05;;
335;SDS011;156;48.738;9.228;2023-12-22T11:53:42;3.80;;;3.22;;
335;SDS011;156;48.738;9.228;2023-12-22T11:56:10;2.83;;;2.63;;
335;SDS011;156;48.738;9.228;2023-12-22T11:58:39;1.98;;;1.85;;
335;SDS011;156;48.738;9.228;2023-12-22T12:01:07;12.90;;;3.08;;
335;SDS011;156;48.738;9.228;2023-12-22T12:03:40;2.65;;;1.60;;
335;SDS011;156;48.738;9.228;2023-12-22T12:06:16;1.95;;;1.85;;
335;SDS011;156;48.738;9.228;2023-12-22T12:08:48;1.90;;;1.85;;
335;SDS011;156;48.738;9.228;2023-12-22T12:11:16;1.60;;;1.50;;
335;SDS011;156;48.738;9.228;2023-12-22T12:13:44;5.03;;;3.35;;
335;SDS011;156;48.738;9.228;2023-12-22T12:16:12;1.50;;;1.40;;
335;SDS011;156;48.738;9.228;2023-12-22T12:18:39;2.22;;;1.70;;
335;SDS011;156;48.738;9.228;2023-12-22T12:21:07;3.47;;;3.28;;
335;SDS011;156;48.738;9.228;2023-12-22T12:23:36;1.40;;;1.30;;
335;SDS011;156;48.738;9.228;2023-12-22T12:26:05;3.08;;;2.10;;
335;SDS011;156;48.738;9.228;2023-12-22T12:28:33;1.45;;;1.35;;
335;SDS011;156;48.738;9.228;2023-12-22T12:31:02;1.30;;;1.20;;
335;SDS011;156;48.738;9.228;2023-12-22T12:33:31;1.30;;;1.20;;
335;SDS011;156;48.738;9.228;2023-12-22T12:35:59;1.25;;;1.15;;
335;SDS011;156;48.738;9.228;2023-12-22T12:38:35;1.05;;;0.95;;
335;SDS011;156;48.738;9.228;2023-12-22T12:41:09;1.10;;;1.00;;
335;SDS011;156;48.738;9.228;2023-12-22T12:43:40;1.65;;;1.55;;
335;SDS011;156;48.738;9.228;2023-12-22T12:46:09;2.35;;;1.13;;
335;SDS011;156;48.738;9.228;2023-12-22T12:48:38;0.90;;;0.80;;
335;SDS011;156;48.738;9.228;2023-12-22T12:51:06;1.00;;;0.90;;
335;SDS011;156;48.738;9.228;2023-12-22T12:53:33;1.10;;;1.00;;
335;SDS011;156;48.738;9.228;2023-12-22T12:56:04;1.00;;;0.90;;
335;SDS011;156;48.738;9.228;2023-12-22T12:58:31;1.45;;;1.27;;
335;SDS011;156;48.738;9.228;2023-12-22T13:01:06;1.45;;;1.35;;
335;SDS011;156;48.738;9.228;2023-12-22T13:06:18;1.42;;;1.33;;
335;SDS011;156;48.738;9.228;2023-12-22T13:08:47;1.45;;;1.08;;
335;SDS011;156;48.738;9.228;2023-12-22T13:11:15;3.08;;;1.05;;
335;SDS011;156;48.738;9.228;2023-12-22T13:13:46;1.13;;;1.02;;
335;SDS011;156;48.738;9.228;2023-12-22T13:16:17;1.23;;;1.13;;
335;SDS011;156;48.738;9.228;2023-12-22T13:18:45;3.53;;;1.30;;
335;SDS011;156;48.738;9.228;2023-12-22T13:21:12;2.78;;;1.13;;
335;SDS011;156;48.738;9.228;2023-12-22T13:23:39;1.15;;;1.05;;
335;SDS011;156;48.738;9.228;2023-12-22T13:26:16;2.75;;;1.30;;
335;SDS011;156;48.738;9.228;2023-12-22T13:28:45;1.30;;;1.20;;
335;SDS011;156;48.738;9.228;2023-12-22T13:31:12;1.65;;;1.55;;
335;SDS011;156;48.738;9.228;2023-12-22T13:33:40;1.30;;;1.20;;
335;SDS011;156;48.738;9.228;2023-12-22T13:36:07;2.80;;;1.10;;
335;SDS011;156;48.738;9.228;2023-12-22T13:38:34;0.90;;;0.80;;
335;SDS011;156;48.738;9.228;2023-12-22T13:41:01;1.88;;;1.17;;
335;SDS011;156;48.738;9.228;2023-12-22T13:43:30;1.30;;;1.20;;
335;SDS011;156;48.738;9.228;2023-12-22T13:45:57;1.75;;;1.50;;
335;SDS011;156;48.738;9.228;2023-12-22T13:48:24;1.55;;;1.45;;
335;SDS011;156;48.738;9.228;2023-12-22T13:50:55;1.40;;;1.30;;
335;SDS011;156;48.738;9.228;2023-12-22T13:53:23;1.52;;;1.42;;
335;SDS011;156;48.738;9.228;2023-12-22T13:55:54;1.60;;;1.50;;
335;SDS011;156;48.738;9.228;2023-12-22T13:58:21;1.33;;;1.23;;
335;SDS011;156;48.738;9.228;2023-12-22T14:00:49;1.23;;;1.13;;
335;SDS011;156;48.738;9.228;2023-12-22T14:03:17;1.33;;;1.23;;
335;SDS011;156;48.738;9.228;2023-12-22T14:05:46;1.20;;;1.10;;
335;SDS011;156;48.738;9.228;2023-12-22T14:08:13;1.30;;;1.20;;
335;SDS011;156;48.738;9.228;2023-12-22T14:10:44;1.30;;;1.20;;
335;SDS011;156;48.738;9.228;2023-12-22T14:13:12;1.30;;;1.20;;
335;SDS011;156;48.738;9.228;2023-12-22T14:15:39;1.20;;;1.10;;
335;SDS011;156;48.738;9.228;2023-12-22T14:18:08;1.33;;;1.10;;
335;SDS011;156;48.738;9.228;2023-12-22T14:20:35;1.10;;;1.00;;
335;SDS011;156;48.738;9.228;2023-12-22T14:23:02;1.00;;;0.90;;
335;SDS011;156;48.738;9.228;2023-12-22T14:25:30;1.10;;;1.00;;
335;SDS011;156;48.738;9.228;2023-12-22T14:27:57;1.92;;;1.17;;
335;SDS011;156;48.738;9.228;2023-12-22T14:30:24;1.00;;;0.90;;
335;SDS011;156;48.738;9.228;2023-12-22T14:32:51;1.02;;;0.93;;
335;SDS011;156;48.738;9.228;2023-12-22T14:35:19;1.10;;;1.00;;
335;SDS011;156;48.738;9.228;2023-12-22T14:37:45;1.00;;;0.90;;
335;SDS011;156;48.738;9.228;2023-12-22T14:40:12;1.00;;;0.90;;
335;SDS011;156;48.738;9.228;2023-12-22T14:42:39;1.05;;;0.95;;
335;SDS011;156;48.738;9.228;2023-12-22T14:45:06;0.80;;;0.70;;
335;SDS011;156;48.738;9.228;2023-12-22T14:47:34;0.98;;;0.88;;
335;SDS011;156;48.738;9.228;2023-12-22T14:50:01;1.10;;;1.00;;
335;SDS011;156;48.738;9.228;2023-12-22T14:52:30;1.08;;;0.98;;
335;SDS011;156;48.738;9.228;2023-12-22T14:54:58;1.10;;;1.00;;
335;SDS011;156;48.738;9.228;2023-12-22T14:57:25;0.95;;;0.85;;
335;SDS011;156;48.738;9.228;2023-12-22T14:59:53;1.00;;;0.90;;
335;SDS011;156;48.738;9.228;2023-12-22T15:02:20;0.90;;;0.80;;
335;SDS011;156;48.738;9.228;2023-12-22T15:04:47;0.70;;;0.60;;
335;SDS011;156;48.738;9.228;2023-12-22T15:07:15;0.55;;;0.52;;
335;SDS011;156;48.738;9.228;2023-12-22T15:09:43;0.80;;;0.60;;
335;SDS011;156;48.738;9.228;2023-12-22T15:12:11;0.70;;;0.70;;
335;SDS011;156;48.738;9.228;2023-12-22T15:14:42;1.02;;;0.50;;
335;SDS011;156;48.738;9.228;2023-12-22T15:17:10;1.55;;;0.50;;
335;SDS011;156;48.738;9.228;2023-12-22T15:19:39;0.60;;;0.45;;
335;SDS011;156;48.738;9.228;2023-12-22T15:22:07;0.77;;;0.68;;
335;SDS011;156;48.738;9.228;2023-12-22T15:24:35;0.70;;;0.50;;
335;SDS011;156;48.738;9.228;2023-12-22T15:27:06;0.50;;;0.40;;
335;SDS011;156;48.738;9.228;2023-12-22T15:29:33;0.40;;;0.40;;
335;SDS011;156;48.738;9.228;2023-12-22T15:32:03;0.50;;;0.50;;
335;SDS011;156;48.738;9.228;2023-12-22T15:34:30;0.65;;;0.55;;
335;SDS011;156;48.738;9.228;2023-12-22T15:36:57;0.40;;;0.30;;
335;SDS011;156;48.738;9.228;2023-12-22T15:39:24;1.38;;;0.52;;
335;SDS011;156;48.738;9.228;2023-12-22T15:41:51;0.50;;;0.40;;
335;SDS011;156;48.738;9.228;2023-12-22T15:44:19;1.02;;;0.55;;
335;SDS011;156;48.738;9.228;2023-12-22T15:46:46;0.50;;;0.40;;
335;SDS011;156;48.738;9.228;2023-12-22T15:49:13;0.50;;;0.40;;
335;SDS011;156;48.738;9.228;2023-12-22T15:51:40;0.60;;;0.40;;
335;SDS011;156;48.738;9.228;2023-12-22T15:54:07;0.60;;;0.40;;